createdAt,value
2017-12-01T00:00:11.765Z,1002.23
2017-12-01T00:01:11.483Z,1002.19
2017-12-01T00:02:11.524Z,1002.19
2017-12-01T00:03:11.560Z,1002.24
2017-12-01T00:04:11.586Z,1002.24
2017-12-01T00:05:11.630Z,1002.24
2017-12-01T00:06:11.649Z,1002.26
2017-12-01T00:07:11.978Z,1002.28
2017-12-01T00:08:11.698Z,1002.28
2017-12-01T00:09:11.735Z,1002.29
2017-12-01T00:10:11.752Z,1002.27
2017-12-01T00:11:11.825Z,1002.32
2017-12-01T00:12:11.814Z,1002.31
2017-12-01T00:13:11.845Z,1002.31
2017-12-01T00:14:12.181Z,1002.31
2017-12-01T00:15:11.909Z,1002.32
2017-12-01T00:16:11.944Z,1002.36
2017-12-01T00:17:11.973Z,1002.35
2017-12-01T00:18:12.028Z,1002.37
2017-12-01T00:19:12.042Z,1002.34
2017-12-01T00:20:12.068Z,1002.38
2017-12-01T00:21:12.443Z,1002.35
2017-12-01T00:22:12.120Z,1002.36
2017-12-01T00:23:12.168Z,1002.36
2017-12-01T00:24:12.229Z,1002.35
2017-12-01T00:25:12.211Z,1002.39
2017-12-01T00:26:12.260Z,1002.37
2017-12-01T00:27:12.268Z,1002.37
2017-12-01T00:28:12.608Z,1002.39
2017-12-01T00:29:12.349Z,1002.38
2017-12-01T00:30:12.365Z,1002.37
2017-12-01T00:31:12.412Z,1002.36
2017-12-01T00:32:12.443Z,1002.36
2017-12-01T00:33:12.478Z,1002.42
2017-12-01T00:34:12.510Z,1002.38
2017-12-01T00:35:12.888Z,1002.43
2017-12-01T00:36:12.570Z,1002.41
2017-12-01T00:37:12.582Z,1002.44
2017-12-01T00:38:12.607Z,1002.46
2017-12-01T00:39:12.636Z,1002.42
2017-12-01T00:40:12.703Z,1002.45
2017-12-01T00:41:12.701Z,1002.43
2017-12-01T00:42:13.032Z,1002.45
2017-12-01T00:43:12.803Z,1002.46
2017-12-01T00:44:12.814Z,1002.48
2017-12-01T00:45:12.819Z,1002.52
2017-12-01T00:46:12.926Z,1002.49
2017-12-01T00:47:12.925Z,1002.54
2017-12-01T00:48:12.933Z,1002.54
2017-12-01T00:49:13.266Z,1002.55
2017-12-01T00:50:12.981Z,1002.52
2017-12-01T00:51:13.005Z,1002.55
2017-12-01T00:52:13.073Z,1002.55
2017-12-01T00:53:13.084Z,1002.56
2017-12-01T00:54:13.097Z,1002.61
2017-12-01T00:55:13.148Z,1002.62
2017-12-01T00:56:13.484Z,1002.62
2017-12-01T00:57:13.204Z,1002.63
2017-12-01T00:58:13.238Z,1002.65
2017-12-01T00:59:13.258Z,1002.65
2017-12-01T01:00:13.314Z,1002.68
2017-12-01T01:01:13.330Z,1002.66
2017-12-01T01:02:13.653Z,1002.72
2017-12-01T01:03:13.371Z,1002.72
2017-12-01T01:04:13.422Z,1002.72
2017-12-01T01:05:13.476Z,1002.74
2017-12-01T01:06:13.483Z,1002.74
2017-12-01T01:07:13.515Z,1002.77
2017-12-01T01:09:13.888Z,1002.86
2017-12-01T01:10:13.589Z,1002.83
2017-12-01T01:11:13.636Z,1002.84
2017-12-01T01:12:13.670Z,1002.88
2017-12-01T01:13:13.685Z,1002.89
2017-12-01T01:14:13.765Z,1002.90
2017-12-01T01:15:14.040Z,1002.92
2017-12-01T01:16:14.016Z,1002.87
2017-12-01T01:17:13.824Z,1002.91
2017-12-01T01:18:13.845Z,1002.92
2017-12-01T01:19:13.864Z,1002.92
2017-12-01T01:20:13.936Z,1002.93
2017-12-01T01:21:14.246Z,1002.96
2017-12-01T01:22:13.959Z,1002.97
2017-12-01T01:23:14.003Z,1002.97
2017-12-01T01:24:14.031Z,1002.96
2017-12-01T01:25:14.072Z,1003.02
2017-12-01T01:26:14.115Z,1003.05
2017-12-01T01:27:14.123Z,1003.02
2017-12-01T01:28:14.455Z,1003.06
2017-12-01T01:29:14.173Z,1003.05
2017-12-01T01:30:14.214Z,1003.11
2017-12-01T01:31:14.226Z,1003.10
2017-12-01T01:32:14.258Z,1003.11
2017-12-01T01:33:14.309Z,1003.11
2017-12-01T01:34:14.342Z,1003.13
2017-12-01T01:35:14.718Z,1003.12
2017-12-01T01:36:14.398Z,1003.17
2017-12-01T01:37:14.429Z,1003.16
2017-12-01T01:38:14.475Z,1003.15
2017-12-01T01:39:14.484Z,1003.17
2017-12-01T01:40:14.528Z,1003.18
2017-12-01T01:41:14.532Z,1003.21
2017-12-01T01:42:14.882Z,1003.23
2017-12-01T01:43:14.599Z,1003.24
2017-12-01T01:44:14.643Z,1003.21
2017-12-01T01:45:14.671Z,1003.25
2017-12-01T01:46:14.753Z,1003.23
2017-12-01T01:47:14.738Z,1003.24
2017-12-01T01:48:14.751Z,1003.25
2017-12-01T01:49:15.078Z,1003.26
2017-12-01T01:50:14.813Z,1003.28
2017-12-01T01:51:14.888Z,1003.33
2017-12-01T01:52:14.872Z,1003.31
2017-12-01T01:53:14.919Z,1003.28
2017-12-01T01:54:14.933Z,1003.29
2017-12-01T01:55:14.962Z,1003.28
2017-12-01T01:56:15.316Z,1003.31
2017-12-01T01:57:15.038Z,1003.33
2017-12-01T01:58:15.068Z,1003.31
2017-12-01T01:59:15.103Z,1003.33
2017-12-01T02:01:15.150Z,1003.30
2017-12-01T02:02:15.181Z,1003.32
2017-12-01T02:03:15.506Z,1003.35
2017-12-01T02:04:15.266Z,1003.37
2017-12-01T02:05:15.282Z,1003.36
2017-12-01T02:06:15.296Z,1003.31
2017-12-01T02:07:15.354Z,1003.33
2017-12-01T02:08:15.374Z,1003.34
2017-12-01T02:09:15.394Z,1003.34
2017-12-01T02:10:15.744Z,1003.38
2017-12-01T02:11:15.473Z,1003.42
2017-12-01T02:12:15.503Z,1003.40
2017-12-01T02:13:15.515Z,1003.40
2017-12-01T02:14:15.562Z,1003.39
2017-12-01T02:15:15.597Z,1003.41
2017-12-01T02:16:15.648Z,1003.38
2017-12-01T02:17:15.950Z,1003.42
2017-12-01T02:18:15.664Z,1003.37
2017-12-01T02:19:15.696Z,1003.44
2017-12-01T02:20:15.741Z,1003.44
2017-12-01T02:21:15.752Z,1003.43
2017-12-01T02:22:15.807Z,1003.46
2017-12-01T02:23:15.836Z,1003.48
2017-12-01T02:24:16.213Z,1003.44
2017-12-01T02:25:15.895Z,1003.49
2017-12-01T02:26:15.916Z,1003.49
2017-12-01T02:27:15.991Z,1003.50
2017-12-01T02:28:15.974Z,1003.50
2017-12-01T02:29:16.006Z,1003.52
2017-12-01T02:30:16.070Z,1003.52
2017-12-01T02:31:16.378Z,1003.52
2017-12-01T02:32:16.091Z,1003.51
2017-12-01T02:33:16.145Z,1003.51
2017-12-01T02:34:16.212Z,1003.49
2017-12-01T02:35:16.189Z,1003.53
2017-12-01T02:36:16.213Z,1003.54
2017-12-01T02:37:16.260Z,1003.56
2017-12-01T02:38:16.573Z,1003.57
2017-12-01T02:39:16.345Z,1003.60
2017-12-01T02:40:16.344Z,1003.60
2017-12-01T02:41:16.386Z,1003.64
2017-12-01T02:42:16.421Z,1003.67
2017-12-01T02:43:16.451Z,1003.67
2017-12-01T02:44:16.491Z,1003.64
2017-12-01T02:45:16.810Z,1003.65
2017-12-01T02:46:16.517Z,1003.69
2017-12-01T02:47:16.552Z,1003.66
2017-12-01T02:48:16.599Z,1003.69
2017-12-01T02:49:16.630Z,1003.71
2017-12-01T02:50:16.667Z,1003.72
2017-12-01T02:51:16.699Z,1003.78
2017-12-01T02:52:17.032Z,1003.78
2017-12-01T02:53:16.752Z,1003.79
2017-12-01T02:54:16.767Z,1003.79
2017-12-01T02:55:16.798Z,1003.81
2017-12-01T02:56:16.879Z,1003.82
2017-12-01T02:57:16.882Z,1003.83
2017-12-01T02:58:17.188Z,1003.84
2017-12-01T02:59:16.922Z,1003.82
2017-12-01T03:00:17.047Z,1003.83
2017-12-01T03:01:16.978Z,1003.85
2017-12-01T03:02:17.010Z,1003.85
2017-12-01T03:03:17.040Z,1003.87
2017-12-01T03:04:17.372Z,1003.90
2017-12-01T03:05:17.149Z,1003.91
2017-12-01T03:06:17.148Z,1003.90
2017-12-01T03:07:17.176Z,1003.90
2017-12-01T03:08:17.212Z,1003.93
2017-12-01T03:09:17.264Z,1003.95
2017-12-01T03:10:17.558Z,1003.94
2017-12-01T03:11:17.298Z,1003.93
2017-12-01T03:12:17.331Z,1003.97
2017-12-01T03:13:17.346Z,1003.97
2017-12-01T03:14:17.404Z,1003.98
2017-12-01T03:15:17.408Z,1003.99
2017-12-01T03:16:17.452Z,1004.02
2017-12-01T03:17:17.790Z,1004.02
2017-12-01T03:18:17.516Z,1003.99
2017-12-01T03:19:17.545Z,1004.01
2017-12-01T03:20:17.558Z,1004.01
2017-12-01T03:21:17.593Z,1004.02
2017-12-01T03:22:17.643Z,1003.99
2017-12-01T03:23:17.651Z,1004.01
2017-12-01T03:24:17.983Z,1003.99
2017-12-01T03:25:17.714Z,1004.01
2017-12-01T03:26:17.745Z,1004.03
2017-12-01T03:27:17.808Z,1004.01
2017-12-01T03:28:17.819Z,1004.04
2017-12-01T03:29:17.833Z,1004.06
2017-12-01T03:30:17.880Z,1004.06
2017-12-01T03:31:18.223Z,1004.06
2017-12-01T03:32:17.941Z,1004.07
2017-12-01T03:33:17.954Z,1004.08
2017-12-01T03:34:17.985Z,1004.06
2017-12-01T03:35:18.051Z,1004.11
2017-12-01T03:36:18.072Z,1004.11
2017-12-01T03:37:18.093Z,1004.13
2017-12-01T03:38:18.488Z,1004.16
2017-12-01T03:39:18.158Z,1004.17
2017-12-01T03:40:18.173Z,1004.15
2017-12-01T03:41:18.202Z,1004.22
2017-12-01T03:42:18.232Z,1004.18
2017-12-01T03:43:18.301Z,1004.25
2017-12-01T03:44:18.307Z,1004.24
2017-12-01T03:45:18.637Z,1004.21
2017-12-01T03:46:18.371Z,1004.26
2017-12-01T03:47:18.400Z,1004.26
2017-12-01T03:48:18.416Z,1004.24
2017-12-01T03:49:18.471Z,1004.33
2017-12-01T03:50:18.476Z,1004.33
2017-12-01T03:51:18.533Z,1004.36
2017-12-01T03:52:18.881Z,1004.39
2017-12-01T03:53:18.577Z,1004.42
2017-12-01T03:54:18.618Z,1004.47
2017-12-01T03:55:18.644Z,1004.50
2017-12-01T03:56:18.677Z,1004.53
2017-12-01T03:57:18.692Z,1004.56
2017-12-01T03:58:18.735Z,1004.53
2017-12-01T03:59:19.051Z,1004.56
2017-12-01T04:00:18.799Z,1004.59
2017-12-01T04:01:18.826Z,1004.57
2017-12-01T04:02:18.861Z,1004.59
2017-12-01T04:03:18.890Z,1004.60
2017-12-01T04:04:18.906Z,1004.59
2017-12-01T04:05:18.947Z,1004.63
2017-12-01T04:06:19.266Z,1004.68
2017-12-01T04:07:19.009Z,1004.64
2017-12-01T04:08:19.028Z,1004.68
2017-12-01T04:09:19.072Z,1004.68
2017-12-01T04:10:19.104Z,1004.68
2017-12-01T04:11:19.131Z,1004.67
2017-12-01T04:12:19.149Z,1004.69
2017-12-01T04:13:19.497Z,1004.71
2017-12-01T04:14:19.209Z,1004.70
2017-12-01T04:15:19.254Z,1004.73
2017-12-01T04:16:19.269Z,1004.76
2017-12-01T04:17:19.338Z,1004.76
2017-12-01T04:18:19.343Z,1004.78
2017-12-01T04:19:19.363Z,1004.79
2017-12-01T04:20:19.743Z,1004.81
2017-12-01T04:21:19.423Z,1004.80
2017-12-01T04:22:19.474Z,1004.80
2017-12-01T04:23:19.481Z,1004.83
2017-12-01T04:24:19.517Z,1004.81
2017-12-01T04:25:19.551Z,1004.83
2017-12-01T04:26:19.602Z,1004.85
2017-12-01T04:27:19.924Z,1004.88
2017-12-01T04:28:19.634Z,1004.91
2017-12-01T04:29:19.979Z,1004.93
2017-12-01T04:30:19.716Z,1005.00
2017-12-01T04:31:19.750Z,1004.97
2017-12-01T04:32:19.768Z,1005.00
2017-12-01T04:33:19.786Z,1004.99
2017-12-01T04:34:20.123Z,1005.00
2017-12-01T04:35:19.870Z,1005.03
2017-12-01T04:36:19.877Z,1005.05
2017-12-01T04:37:19.910Z,1005.08
2017-12-01T04:38:19.939Z,1005.10
2017-12-01T04:39:19.992Z,1005.15
2017-12-01T04:40:20.016Z,1005.12
2017-12-01T04:41:20.356Z,1005.14
2017-12-01T04:42:20.109Z,1005.21
2017-12-01T04:43:20.098Z,1005.19
2017-12-01T04:44:20.134Z,1005.18
2017-12-01T04:45:20.175Z,1005.19
2017-12-01T04:46:20.250Z,1005.24
2017-12-01T04:47:20.522Z,1005.28
2017-12-01T04:48:20.306Z,1005.28
2017-12-01T04:49:20.277Z,1005.30
2017-12-01T04:50:20.383Z,1005.35
2017-12-01T04:51:20.337Z,1005.34
2017-12-01T04:52:20.389Z,1005.35
2017-12-01T04:53:20.719Z,1005.38
2017-12-01T04:54:20.460Z,1005.38
2017-12-01T04:55:20.469Z,1005.43
2017-12-01T04:56:20.507Z,1005.40
2017-12-01T04:57:20.534Z,1005.44
2017-12-01T04:58:20.561Z,1005.45
2017-12-01T04:59:20.879Z,1005.45
2017-12-01T05:00:20.619Z,1005.50
2017-12-01T05:01:20.667Z,1005.51
2017-12-01T05:02:20.671Z,1005.49
2017-12-01T05:03:20.702Z,1005.51
2017-12-01T05:04:20.743Z,1005.47
2017-12-01T05:05:20.787Z,1005.51
2017-12-01T05:06:21.112Z,1005.51
2017-12-01T05:07:20.853Z,1005.49
2017-12-01T05:08:20.874Z,1005.55
2017-12-01T05:09:20.889Z,1005.56
2017-12-01T05:10:20.933Z,1005.57
2017-12-01T05:11:20.968Z,1005.58
2017-12-01T05:12:20.978Z,1005.59
2017-12-01T05:13:21.337Z,1005.59
2017-12-01T05:14:21.055Z,1005.61
2017-12-01T05:15:21.068Z,1005.64
2017-12-01T05:16:21.115Z,1005.65
2017-12-01T05:17:21.128Z,1005.69
2017-12-01T05:18:21.158Z,1005.71
2017-12-01T05:19:21.208Z,1005.73
2017-12-01T05:20:21.548Z,1005.70
2017-12-01T05:21:21.251Z,1005.76
2017-12-01T05:22:21.303Z,1005.77
2017-12-01T05:23:21.328Z,1005.75
2017-12-01T05:24:21.359Z,1005.78
2017-12-01T05:25:21.375Z,1005.78
2017-12-01T05:26:21.405Z,1005.83
2017-12-01T05:27:21.755Z,1005.84
2017-12-01T05:28:21.468Z,1005.84
2017-12-01T05:29:21.500Z,1005.85
2017-12-01T05:30:21.547Z,1005.88
2017-12-01T05:31:21.572Z,1005.90
2017-12-01T05:32:21.587Z,1005.92
2017-12-01T05:33:21.623Z,1005.92
2017-12-01T05:34:21.991Z,1005.93
2017-12-01T05:35:21.683Z,1005.97
2017-12-01T05:36:21.714Z,1006.00
2017-12-01T05:37:21.764Z,1006.02
2017-12-01T05:38:21.795Z,1006.02
2017-12-01T05:39:21.827Z,1006.01
2017-12-01T05:40:21.854Z,1006.01
2017-12-01T05:41:22.165Z,1006.03
2017-12-01T05:42:21.911Z,1006.05
2017-12-01T05:43:21.951Z,1006.06
2017-12-01T05:44:21.955Z,1006.06
2017-12-01T05:45:22.006Z,1006.09
2017-12-01T05:46:22.037Z,1006.12
2017-12-01T05:47:22.454Z,1006.13
2017-12-01T05:48:22.384Z,1006.14
2017-12-01T05:49:22.112Z,1006.14
2017-12-01T05:50:22.164Z,1006.19
2017-12-01T05:51:22.200Z,1006.19
2017-12-01T05:52:22.218Z,1006.13
2017-12-01T05:53:22.232Z,1006.20
2017-12-01T05:54:22.359Z,1006.22
2017-12-01T05:55:22.610Z,1006.21
2017-12-01T05:56:22.338Z,1006.20
2017-12-01T05:57:22.370Z,1006.24
2017-12-01T05:58:22.384Z,1006.22
2017-12-01T05:59:22.429Z,1006.22
2017-12-01T06:00:22.457Z,1006.23
2017-12-01T06:01:22.479Z,1006.22
2017-12-01T06:02:22.806Z,1006.19
2017-12-01T06:03:22.537Z,1006.23
2017-12-01T06:04:22.582Z,1006.26
2017-12-01T06:05:22.602Z,1006.24
2017-12-01T06:06:22.645Z,1006.27
2017-12-01T06:07:22.676Z,1006.33
2017-12-01T06:08:22.694Z,1006.34
2017-12-01T06:09:23.047Z,1006.36
2017-12-01T06:10:22.746Z,1006.35
2017-12-01T06:11:22.796Z,1006.42
2017-12-01T06:12:22.906Z,1006.43
2017-12-01T06:13:22.844Z,1006.43
2017-12-01T06:14:22.892Z,1006.51
2017-12-01T06:15:22.905Z,1006.53
2017-12-01T06:16:23.237Z,1006.52
2017-12-01T06:17:22.979Z,1006.61
2017-12-01T06:18:23.012Z,1006.58
2017-12-01T06:19:23.043Z,1006.61
2017-12-01T06:20:23.073Z,1006.61
2017-12-01T06:21:23.103Z,1006.63
2017-12-01T06:22:23.122Z,1006.68
2017-12-01T06:23:23.502Z,1006.64
2017-12-01T06:24:23.196Z,1006.65
2017-12-01T06:25:23.213Z,1006.65
2017-12-01T06:26:23.247Z,1006.69
2017-12-01T06:27:23.268Z,1006.67
2017-12-01T06:28:23.300Z,1006.72
2017-12-01T06:29:23.336Z,1006.71
2017-12-01T06:30:23.692Z,1006.78
2017-12-01T06:31:23.409Z,1006.78
2017-12-01T06:32:23.446Z,1006.83
2017-12-01T06:33:23.479Z,1006.83
2017-12-01T06:34:23.506Z,1006.84
2017-12-01T06:35:23.518Z,1006.83
2017-12-01T06:36:23.543Z,1006.87
2017-12-01T06:37:23.879Z,1006.88
2017-12-01T06:38:23.606Z,1006.88
2017-12-01T06:39:23.644Z,1006.93
2017-12-01T06:40:23.688Z,1006.97
2017-12-01T06:41:23.711Z,1006.97
2017-12-01T06:42:23.733Z,1006.96
2017-12-01T06:43:24.093Z,1006.98
2017-12-01T06:44:23.788Z,1007.03
2017-12-01T06:45:23.905Z,1007.00
2017-12-01T06:46:23.868Z,1007.02
2017-12-01T06:47:23.904Z,1007.01
2017-12-01T06:48:23.910Z,1007.00
2017-12-01T06:49:23.944Z,1007.07
2017-12-01T06:50:23.991Z,1007.04
2017-12-01T06:51:24.030Z,1007.06
2017-12-01T06:52:24.051Z,1007.10
2017-12-01T06:53:24.079Z,1007.15
2017-12-01T06:54:24.113Z,1007.12
2017-12-01T06:55:24.429Z,1007.13
2017-12-01T06:56:24.161Z,1007.16
2017-12-01T06:57:24.210Z,1007.20
2017-12-01T06:58:24.219Z,1007.19
2017-12-01T06:59:24.301Z,1007.22
2017-12-01T07:00:24.279Z,1007.28
2017-12-01T07:01:24.338Z,1007.29
2017-12-01T07:02:24.654Z,1007.32
2017-12-01T07:03:24.390Z,1007.31
2017-12-01T07:04:24.407Z,1007.36
2017-12-01T07:05:24.452Z,1007.38
2017-12-01T07:06:24.477Z,1007.40
2017-12-01T07:07:24.494Z,1007.42
2017-12-01T07:08:24.523Z,1007.44
2017-12-01T07:09:24.872Z,1007.46
2017-12-01T07:10:24.601Z,1007.46
2017-12-01T07:11:24.616Z,1007.47
2017-12-01T07:12:24.643Z,1007.51
2017-12-01T07:13:24.685Z,1007.51
2017-12-01T07:14:24.706Z,1007.51
2017-12-01T07:15:24.753Z,1007.55
2017-12-01T07:16:25.092Z,1007.58
2017-12-01T07:17:24.821Z,1007.59
2017-12-01T07:18:24.846Z,1007.63
2017-12-01T07:19:24.891Z,1007.68
2017-12-01T07:20:24.894Z,1007.69
2017-12-01T07:21:25.086Z,1007.70
2017-12-01T07:22:24.974Z,1007.69
2017-12-01T07:23:25.526Z,1007.74
2017-12-01T07:24:25.011Z,1007.74
2017-12-01T07:25:25.063Z,1007.74
2017-12-01T07:26:25.098Z,1007.76
2017-12-01T07:27:25.104Z,1007.78
2017-12-01T07:28:25.143Z,1007.73
2017-12-01T07:29:25.162Z,1007.74
2017-12-01T07:30:25.508Z,1007.76
2017-12-01T07:31:25.251Z,1007.78
2017-12-01T07:32:25.255Z,1007.78
2017-12-01T07:33:25.288Z,1007.81
2017-12-01T07:34:25.385Z,1007.82
2017-12-01T07:35:25.366Z,1007.83
2017-12-01T07:36:25.383Z,1007.89
2017-12-01T07:37:25.792Z,1007.90
2017-12-01T07:38:25.477Z,1007.92
2017-12-01T07:39:25.480Z,1007.93
2017-12-01T07:40:25.518Z,1007.93
2017-12-01T07:41:25.530Z,1007.92
2017-12-01T07:42:25.605Z,1007.96
2017-12-01T07:43:25.616Z,1007.99
2017-12-01T07:44:25.924Z,1008.01
2017-12-01T07:45:25.655Z,1008.04
2017-12-01T07:46:25.714Z,1008.05
2017-12-01T07:47:25.754Z,1008.10
2017-12-01T07:48:26.170Z,1008.11
2017-12-01T07:49:25.805Z,1008.13
2017-12-01T07:50:25.808Z,1008.18
2017-12-01T07:51:26.150Z,1008.15
2017-12-01T07:52:25.892Z,1008.21
2017-12-01T07:53:25.922Z,1008.21
2017-12-01T07:54:25.927Z,1008.24
2017-12-01T07:55:25.958Z,1008.28
2017-12-01T07:56:26.016Z,1008.27
2017-12-01T07:57:26.051Z,1008.31
2017-12-01T07:58:26.388Z,1008.30
2017-12-01T07:59:26.086Z,1008.32
2017-12-01T08:00:26.120Z,1008.34
2017-12-01T08:01:26.206Z,1008.34
2017-12-01T08:02:26.195Z,1008.35
2017-12-01T08:03:26.224Z,1008.35
2017-12-01T08:04:26.275Z,1008.33
2017-12-01T08:05:26.583Z,1008.32
2017-12-01T08:06:26.298Z,1008.33
2017-12-01T08:07:26.348Z,1008.32
2017-12-01T08:08:26.362Z,1008.36
2017-12-01T08:09:26.392Z,1008.34
2017-12-01T08:10:26.430Z,1008.36
2017-12-01T08:11:26.465Z,1008.34
2017-12-01T08:12:26.798Z,1008.40
2017-12-01T08:13:26.530Z,1008.39
2017-12-01T08:14:26.549Z,1008.44
2017-12-01T08:15:26.574Z,1008.46
2017-12-01T08:16:26.618Z,1008.47
2017-12-01T08:17:26.632Z,1008.51
2017-12-01T08:18:26.682Z,1008.55
2017-12-01T08:19:26.699Z,1008.57
2017-12-01T08:20:26.736Z,1008.60
2017-12-01T08:21:26.783Z,1008.59
2017-12-01T08:22:26.793Z,1008.61
2017-12-01T08:23:26.817Z,1008.61
2017-12-01T08:24:26.891Z,1008.65
2017-12-01T08:25:27.177Z,1008.65
2017-12-01T08:26:26.947Z,1008.68
2017-12-01T08:27:26.960Z,1008.64
2017-12-01T08:28:26.991Z,1008.70
2017-12-01T08:29:27.002Z,1008.70
2017-12-01T08:30:27.035Z,1008.74
2017-12-01T08:31:27.082Z,1008.74
2017-12-01T08:32:27.397Z,1008.80
2017-12-01T08:33:27.143Z,1008.81
2017-12-01T08:34:27.173Z,1008.83
2017-12-01T08:35:27.197Z,1008.87
2017-12-01T08:36:27.229Z,1008.89
2017-12-01T08:37:27.245Z,1008.87
2017-12-01T08:38:27.578Z,1008.87
2017-12-01T08:39:27.326Z,1008.87
2017-12-01T08:40:27.358Z,1008.96
2017-12-01T08:41:27.371Z,1008.99
2017-12-01T08:42:27.400Z,1009.01
2017-12-01T08:43:27.442Z,1009.07
2017-12-01T08:44:27.778Z,1009.09
2017-12-01T08:45:27.518Z,1009.11
2017-12-01T08:46:27.542Z,1009.10
2017-12-01T08:47:27.554Z,1009.11
2017-12-01T08:48:27.604Z,1009.09
2017-12-01T08:49:27.616Z,1009.13
2017-12-01T08:50:27.964Z,1009.17
2017-12-01T08:51:27.706Z,1009.19
2017-12-01T08:52:27.734Z,1009.21
2017-12-01T08:53:27.771Z,1009.21
2017-12-01T08:54:27.816Z,1009.21
2017-12-01T08:55:27.827Z,1009.22
2017-12-01T08:56:27.849Z,1009.20
2017-12-01T08:57:28.180Z,1009.22
2017-12-01T08:58:27.908Z,1009.21
2017-12-01T08:59:27.943Z,1009.23
2017-12-01T09:00:27.956Z,1009.22
2017-12-01T09:01:28.006Z,1009.23
2017-12-01T09:02:28.017Z,1009.28
2017-12-01T09:03:28.066Z,1009.26
2017-12-01T09:04:28.410Z,1009.29
2017-12-01T09:05:28.126Z,1009.33
2017-12-01T09:06:28.144Z,1009.30
2017-12-01T09:07:28.173Z,1009.35
2017-12-01T09:08:28.220Z,1009.35
2017-12-01T09:09:28.235Z,1009.36
2017-12-01T09:10:28.289Z,1009.36
2017-12-01T09:11:28.612Z,1009.35
2017-12-01T09:12:28.350Z,1009.39
2017-12-01T09:13:28.385Z,1009.42
2017-12-01T09:14:28.390Z,1009.40
2017-12-01T09:15:28.437Z,1009.43
2017-12-01T09:16:28.468Z,1009.43
2017-12-01T09:17:28.495Z,1009.45
2017-12-01T09:18:28.837Z,1009.46
2017-12-01T09:19:28.547Z,1009.49
2017-12-01T09:20:28.609Z,1009.51
2017-12-01T09:21:28.628Z,1009.54
2017-12-01T09:22:28.633Z,1009.47
2017-12-01T09:23:28.683Z,1009.55
2017-12-01T09:24:28.696Z,1009.52
2017-12-01T09:25:29.048Z,1009.53
2017-12-01T09:26:28.783Z,1009.56
2017-12-01T09:27:28.791Z,1009.59
2017-12-01T09:28:28.823Z,1009.59
2017-12-01T09:29:29.619Z,1009.59
2017-12-01T09:30:28.882Z,1009.65
2017-12-01T09:31:28.932Z,1009.65
2017-12-01T09:32:28.963Z,1009.73
2017-12-01T09:33:29.000Z,1009.75
2017-12-01T09:34:29.028Z,1009.76
2017-12-01T09:35:29.055Z,1009.81
2017-12-01T09:36:29.073Z,1009.80
2017-12-01T09:37:29.125Z,1009.82
2017-12-01T09:38:29.443Z,1009.82
2017-12-01T09:39:29.161Z,1009.86
2017-12-01T09:40:29.192Z,1009.87
2017-12-01T09:41:29.228Z,1009.91
2017-12-01T09:42:29.259Z,1009.91
2017-12-01T09:43:29.310Z,1009.96
2017-12-01T09:44:29.342Z,1009.95
2017-12-01T09:45:29.667Z,1009.92
2017-12-01T09:46:29.429Z,1009.91
2017-12-01T09:47:29.421Z,1009.92
2017-12-01T09:48:29.447Z,1009.96
2017-12-01T09:49:29.472Z,1009.93
2017-12-01T09:50:29.523Z,1009.95
2017-12-01T09:51:29.543Z,1009.97
2017-12-01T09:52:29.877Z,1009.97
2017-12-01T09:53:29.614Z,1009.98
2017-12-01T09:54:29.675Z,1009.99
2017-12-01T09:55:29.660Z,1010.02
2017-12-01T09:56:30.123Z,1010.04
2017-12-01T09:57:29.742Z,1010.06
2017-12-01T09:58:29.787Z,1010.08
2017-12-01T09:59:30.120Z,1010.08
2017-12-01T10:01:29.862Z,1010.14
2017-12-01T10:02:29.914Z,1010.14
2017-12-01T10:03:29.943Z,1010.16
2017-12-01T10:04:29.946Z,1010.15
2017-12-01T10:05:30.289Z,1010.17
2017-12-01T10:06:30.005Z,1010.19
2017-12-01T10:07:30.059Z,1010.21
2017-12-01T10:08:30.065Z,1010.22
2017-12-01T10:09:30.113Z,1010.24
2017-12-01T10:10:30.157Z,1010.23
2017-12-01T10:11:30.465Z,1010.21
2017-12-01T10:12:30.211Z,1010.23
2017-12-01T10:13:30.234Z,1010.24
2017-12-01T10:14:30.277Z,1010.32
2017-12-01T10:15:30.311Z,1010.28
2017-12-01T10:16:30.345Z,1010.30
2017-12-01T10:17:30.665Z,1010.32
2017-12-01T10:18:30.377Z,1010.33
2017-12-01T10:20:30.445Z,1010.33
2017-12-01T10:21:30.491Z,1010.38
2017-12-01T10:22:30.507Z,1010.38
2017-12-01T10:23:30.540Z,1010.40
2017-12-01T10:24:30.918Z,1010.39
2017-12-01T10:25:30.614Z,1010.39
2017-12-01T10:27:30.681Z,1010.40
2017-12-01T10:28:30.712Z,1010.43
2017-12-01T10:29:30.724Z,1010.41
2017-12-01T10:30:30.772Z,1010.41
2017-12-01T10:31:31.110Z,1010.44
2017-12-01T10:32:30.839Z,1010.39
2017-12-01T10:33:30.879Z,1010.44
2017-12-01T10:34:30.944Z,1010.44
2017-12-01T10:35:30.931Z,1010.47
2017-12-01T10:37:31.281Z,1010.46
2017-12-01T10:38:31.004Z,1010.42
2017-12-01T10:39:31.058Z,1010.45
2017-12-01T10:40:31.114Z,1010.49
2017-12-01T10:41:31.117Z,1010.51
2017-12-01T10:42:31.149Z,1010.49
2017-12-01T10:43:31.185Z,1010.52
2017-12-01T10:44:31.498Z,1010.52
2017-12-01T10:45:31.236Z,1010.48
2017-12-01T10:46:31.262Z,1010.53
2017-12-01T10:47:31.320Z,1010.55
2017-12-01T10:48:31.341Z,1010.55
2017-12-01T10:49:31.377Z,1010.60
2017-12-01T10:50:31.388Z,1010.59
2017-12-01T10:51:31.737Z,1010.61
2017-12-01T10:52:31.479Z,1010.65
2017-12-01T10:53:31.480Z,1010.61
2017-12-01T10:54:31.528Z,1010.65
2017-12-01T10:55:31.573Z,1010.66
2017-12-01T10:56:31.597Z,1010.63
2017-12-01T10:57:31.653Z,1010.64
2017-12-01T10:58:31.657Z,1010.67
2017-12-01T10:59:31.678Z,1010.64
2017-12-01T11:00:31.729Z,1010.66
2017-12-01T11:01:31.739Z,1010.66
2017-12-01T11:02:31.782Z,1010.69
2017-12-01T11:03:31.814Z,1010.74
2017-12-01T11:04:32.181Z,1010.75
2017-12-01T11:05:31.865Z,1010.77
2017-12-01T11:06:31.889Z,1010.76
2017-12-01T11:07:31.942Z,1010.78
2017-12-01T11:08:31.973Z,1010.75
2017-12-01T11:09:31.989Z,1010.80
2017-12-01T11:10:32.334Z,1010.76
2017-12-01T11:11:32.051Z,1010.75
2017-12-01T11:12:32.108Z,1010.76
2017-12-01T11:13:32.139Z,1010.75
2017-12-01T11:14:32.158Z,1010.76
2017-12-01T11:15:32.219Z,1010.85
2017-12-01T11:16:32.528Z,1010.82
2017-12-01T11:17:32.254Z,1010.85
2017-12-01T11:18:32.294Z,1010.86
2017-12-01T11:19:32.306Z,1010.87
2017-12-01T11:20:32.352Z,1010.89
2017-12-01T11:21:32.366Z,1010.90
2017-12-01T11:22:32.726Z,1010.86
2017-12-01T11:23:32.425Z,1010.89
2017-12-01T11:24:32.470Z,1010.89
2017-12-01T11:25:32.488Z,1010.88
2017-12-01T11:26:32.524Z,1010.90
2017-12-01T11:27:32.550Z,1010.91
2017-12-01T11:28:32.586Z,1010.92
2017-12-01T11:29:32.913Z,1010.90
2017-12-01T11:30:32.672Z,1010.91
2017-12-01T11:31:32.682Z,1010.91
2017-12-01T11:32:32.714Z,1010.93
2017-12-01T11:33:32.747Z,1010.95
2017-12-01T11:34:32.796Z,1010.93
2017-12-01T11:35:32.802Z,1011.00
2017-12-01T11:36:33.154Z,1010.98
2017-12-01T11:37:32.929Z,1010.98
2017-12-01T11:38:32.901Z,1010.97
2017-12-01T11:39:32.951Z,1011.01
2017-12-01T11:40:32.960Z,1011.01
2017-12-01T11:41:32.992Z,1011.03
2017-12-01T11:42:33.027Z,1011.07
2017-12-01T11:43:33.372Z,1011.08
2017-12-01T11:44:33.099Z,1011.09
2017-12-01T11:45:33.121Z,1011.09
2017-12-01T11:46:33.168Z,1011.16
2017-12-01T11:47:33.236Z,1011.16
2017-12-01T11:48:33.231Z,1011.17
2017-12-01T11:49:33.351Z,1011.17
2017-12-01T11:50:33.599Z,1011.17
2017-12-01T11:51:33.330Z,1011.17
2017-12-01T11:52:33.362Z,1011.20
2017-12-01T11:53:33.421Z,1011.18
2017-12-01T11:54:33.403Z,1011.20
2017-12-01T11:55:33.437Z,1011.19
2017-12-01T11:56:33.513Z,1011.19
2017-12-01T11:57:33.800Z,1011.19
2017-12-01T11:58:33.532Z,1011.16
2017-12-01T11:59:33.567Z,1011.18
2017-12-01T12:00:33.621Z,1011.18
2017-12-01T12:01:33.623Z,1011.19
2017-12-01T12:02:33.656Z,1011.24
2017-12-01T12:03:33.719Z,1011.26
2017-12-01T12:04:34.021Z,1011.28
2017-12-01T12:05:33.749Z,1011.33
2017-12-01T12:06:33.792Z,1011.32
2017-12-01T12:07:33.850Z,1011.36
2017-12-01T12:09:33.893Z,1011.40
2017-12-01T12:10:33.903Z,1011.44
2017-12-01T12:11:33.938Z,1011.49
2017-12-01T12:12:33.967Z,1011.46